Time;durP1;ratioP1;P1;durP2;ratioP2;P2;SDS_P1;SDS_P2;PMS_P1;PMS_P2;Temp;Humidity;BMP_temperature;BMP_pressure;BME280_temperature;BME280_humidity;BME280_pressure;Samples;Min_cycle;Max_cycle;Signal;HPM_P1;HPM_P2
2023/06/16 00:01:42;;;;;;;7.78;4.57;;;15.10;99.90;;;;;;5073556;28;20207;-89
2023/06/16 00:04:09;;;;;;;6.25;5.18;;;15.10;99.90;;;;;;5074659;28;20177;-90
2023/06/16 00:06:36;;;;;;;8.73;4.63;;;15.10;99.90;;;;;;5073511;28;20169;-90
2023/06/16 00:09:08;;;;;;;5.13;4.25;;;15.00;99.90;;;;;;5074852;28;20173;-90
2023/06/16 00:11:34;;;;;;;7.97;4.65;;;15.00;99.90;;;;;;5073679;28;20174;-91
2023/06/16 00:14:00;;;;;;;8.50;4.93;;;15.00;99.90;;;;;;5073586;28;20194;-90
2023/06/16 00:16:26;;;;;;;6.38;4.43;;;14.90;99.90;;;;;;5074423;28;20205;-91
2023/06/16 00:18:57;;;;;;;9.02;4.88;;;14.90;99.90;;;;;;5073419;28;20179;-91
2023/06/16 00:21:35;;;;;;;6.80;4.32;;;14.90;99.90;;;;;;5073520;28;20177;-90
2023/06/16 00:24:02;;;;;;;5.70;4.72;;;14.90;99.90;;;;;;5074376;28;20162;-89
2023/06/16 00:26:27;;;;;;;7.13;5.25;;;14.80;99.90;;;;;;5073216;28;20177;-89
2023/06/16 00:28:56;;;;;;;5.28;4.60;;;14.80;99.90;;;;;;5074675;28;20200;-91
2023/06/16 00:31:22;;;;;;;9.45;4.93;;;14.80;99.90;;;;;;5073289;28;20166;-91
2023/06/16 00:33:48;;;;;;;9.57;5.20;;;14.80;99.90;;;;;;5073288;28;20507;-92
2023/06/16 00:36:13;;;;;;;5.82;5.00;;;14.70;99.90;;;;;;5073349;28;20237;-92
2023/06/16 00:38:39;;;;;;;6.28;5.13;;;14.50;99.90;;;;;;5077220;28;20166;-92
2023/06/16 00:41:05;;;;;;;8.07;5.85;;;14.50;99.90;;;;;;5076785;28;20191;-91
2023/06/16 00:43:31;;;;;;;6.22;4.97;;;14.30;99.90;;;;;;5077915;28;20248;-91
2023/06/16 00:45:57;;;;;;;7.07;5.28;;;14.30;99.90;;;;;;5076456;28;20235;-92
2023/06/16 00:48:23;;;;;;;6.28;5.18;;;14.30;99.90;;;;;;5076659;28;20177;-91
2023/06/16 00:50:49;;;;;;;6.32;5.03;;;14.30;99.90;;;;;;5077775;28;20495;-92
2023/06/16 00:53:16;;;;;;;5.47;4.60;;;14.30;99.90;;;;;;5077577;28;20532;-91
2023/06/16 00:55:43;;;;;;;6.13;5.28;;;14.30;99.90;;;;;;5077752;28;20532;-91
2023/06/16 00:58:10;;;;;;;7.50;5.38;;;14.20;99.90;;;;;;5076442;28;20260;-91
2023/06/16 01:00:38;;;;;;;5.90;5.07;;;14.20;99.90;;;;;;5076281;28;20210;-90
2023/06/16 01:03:04;;;;;;;8.52;5.47;;;14.20;99.90;;;;;;5076622;28;20676;-90
2023/06/16 01:05:31;;;;;;;6.97;5.47;;;14.20;99.90;;;;;;5076432;28;20307;-92
2023/06/16 01:08:16;;;;;;;8.68;5.32;;;14.30;99.90;;;;;;5076465;28;20256;-91
2023/06/16 01:11:01;;;;;;;7.55;5.43;;;14.40;99.90;;;;;;5076211;28;20169;-90
2023/06/16 01:13:35;;;;;;;7.03;5.47;;;14.40;99.90;;;;;;5076104;28;20607;-90
2023/06/16 01:16:03;;;;;;;7.50;5.30;;;14.40;99.90;;;;;;5075818;28;20208;-88
2023/06/16 01:18:31;;;;;;;7.95;5.50;;;14.40;99.90;;;;;;5076100;28;20169;-90
2023/06/16 01:21:17;;;;;;;6.30;5.63;;;14.40;99.90;;;;;;5075721;28;20204;-86
2023/06/16 01:24:05;;;;;;;7.65;5.55;;;14.30;99.90;;;;;;5076027;28;20211;-86
2023/06/16 01:26:34;;;;;;;6.68;5.38;;;14.40;99.90;;;;;;5075949;28;20226;-88
2023/06/16 01:29:02;;;;;;;6.65;5.30;;;14.40;99.90;;;;;;5076890;28;20220;-88
2023/06/16 01:31:31;;;;;;;5.93;5.13;;;14.40;99.90;;;;;;5075494;28;20184;-87
2023/06/16 01:33:59;;;;;;;6.60;5.32;;;14.40;99.90;;;;;;5075590;28;20177;-90
2023/06/16 01:36:30;;;;;;;9.77;5.38;;;14.50;99.90;;;;;;5075562;28;20212;-90
2023/06/16 01:38:57;;;;;;;7.10;4.97;;;14.50;99.90;;;;;;5075548;28;20515;-90
2023/06/16 01:41:24;;;;;;;7.88;4.93;;;14.60;99.90;;;;;;5076588;28;20262;-89
2023/06/16 01:43:50;;;;;;;6.20;4.70;;;14.70;99.90;;;;;;5076316;28;20200;-89
2023/06/16 01:46:16;;;;;;;5.53;4.72;;;14.70;99.90;;;;;;5076128;28;20176;-89
2023/06/16 01:48:43;;;;;;;6.00;4.53;;;14.60;99.90;;;;;;5075270;28;20260;-90
2023/06/16 01:51:18;;;;;;;6.80;4.63;;;14.80;99.90;;;;;;5076497;28;20246;-92
2023/06/16 01:53:44;;;;;;;12.05;5.03;;;14.80;99.90;;;;;;5076281;28;20200;-91
2023/06/16 01:56:13;;;;;;;5.78;4.13;;;14.80;99.90;;;;;;5074915;28;20660;-86
2023/06/16 01:58:39;;;;;;;10.02;4.72;;;14.90;99.90;;;;;;5074956;28;20268;-90
2023/06/16 02:01:10;;;;;;;7.45;5.03;;;14.90;99.90;;;;;;5075842;28;20206;-91
2023/06/16 02:03:36;;;;;;;7.63;4.78;;;14.90;99.90;;;;;;5074368;28;20231;-90
2023/06/16 02:06:07;;;;;;;4.68;4.05;;;14.90;99.90;;;;;;5074923;28;20177;-87
2023/06/16 02:08:34;;;;;;;6.85;4.43;;;14.80;99.90;;;;;;5074804;28;20177;-89
2023/06/16 02:11:01;;;;;;;7.30;4.13;;;14.80;99.90;;;;;;5074569;28;20514;-89
2023/06/16 02:13:28;;;;;;;7.20;4.20;;;14.80;99.90;;;;;;5075621;28;20618;-90
2023/06/16 02:15:55;;;;;;;7.13;4.38;;;14.70;99.90;;;;;;5073858;28;20262;-91
2023/06/16 02:18:24;;;;;;;8.45;4.13;;;14.70;99.90;;;;;;5075654;28;20215;-91
2023/06/16 02:20:57;;;;;;;8.38;4.13;;;14.60;99.90;;;;;;5074197;28;20188;-91
2023/06/16 02:23:22;;;;;;;5.60;3.85;;;14.60;99.90;;;;;;5074730;28;20177;-91
2023/06/16 02:25:48;;;;;;;7.13;4.20;;;14.60;99.90;;;;;;5074710;28;20264;-91
2023/06/16 02:28:14;;;;;;;5.80;4.30;;;14.60;99.90;;;;;;5075488;28;20224;-92
2023/06/16 02:30:46;;;;;;;4.85;4.35;;;14.50;99.90;;;;;;5075533;28;20195;-91
2023/06/16 02:33:12;;;;;;;5.72;4.50;;;14.50;99.90;;;;;;5075630;28;20166;-90
2023/06/16 02:35:39;;;;;;;6.93;4.45;;;14.50;99.90;;;;;;5075698;28;20205;-92
2023/06/16 02:38:05;;;;;;;6.32;4.57;;;14.50;99.90;;;;;;5075758;28;20165;-91
2023/06/16 02:40:30;;;;;;;4.88;4.20;;;14.50;99.90;;;;;;5074379;28;20511;-91
2023/06/16 02:42:56;;;;;;;6.25;4.43;;;14.50;99.90;;;;;;5074302;28;20173;-90
2023/06/16 02:45:22;;;;;;;7.18;3.92;;;14.40;99.90;;;;;;5074292;28;20177;-90
2023/06/16 02:47:48;;;;;;;5.22;4.07;;;14.50;99.90;;;;;;5074436;28;20256;-91
2023/06/16 02:50:38;;;;;;;5.32;3.97;;;14.50;99.90;;;;;;5074339;28;20230;-90
2023/06/16 02:53:05;;;;;;;5.93;4.68;;;14.50;99.90;;;;;;5074422;28;20173;-89
2023/06/16 02:55:31;;;;;;;4.97;4.00;;;14.50;99.90;;;;;;5075421;28;20246;-91
2023/06/16 02:57:57;;;;;;;4.45;3.88;;;14.50;99.90;;;;;;5074379;28;20202;-90
2023/06/16 03:00:23;;;;;;;12.45;4.00;;;14.50;99.90;;;;;;5073591;28;20205;-91
2023/06/16 03:02:48;;;;;;;5.65;4.10;;;14.50;99.90;;;;;;5075364;28;20200;-91
2023/06/16 03:05:17;;;;;;;6.78;4.53;;;14.50;99.90;;;;;;5074315;28;20183;-91
2023/06/16 03:07:44;;;;;;;4.68;4.03;;;14.50;99.90;;;;;;5075292;28;20173;-91
2023/06/16 03:10:11;;;;;;;8.27;4.28;;;14.50;99.90;;;;;;5073924;28;20184;-90
2023/06/16 03:12:40;;;;;;;5.63;4.25;;;14.50;99.90;;;;;;5074175;28;20185;-87
2023/06/16 03:15:06;;;;;;;5.57;4.40;;;14.50;99.90;;;;;;5074063;28;20205;-91
2023/06/16 03:17:33;;;;;;;6.45;4.40;;;14.50;99.90;;;;;;5074099;28;20502;-91
2023/06/16 03:19:59;;;;;;;5.45;4.28;;;14.50;99.90;;;;;;5074975;28;20176;-90
2023/06/16 03:22:25;;;;;;;6.32;4.40;;;14.40;99.90;;;;;;5074025;28;20208;-89
2023/06/16 03:24:51;;;;;;;9.25;4.22;;;14.40;99.90;;;;;;5074382;28;20508;-89
2023/06/16 03:27:17;;;;;;;5.38;4.22;;;14.40;99.90;;;;;;5073143;28;20319;-90
2023/06/16 03:29:43;;;;;;;5.35;4.40;;;14.50;99.90;;;;;;5074821;28;20168;-90
2023/06/16 03:32:15;;;;;;;11.23;5.20;;;14.60;99.90;;;;;;5074800;28;20169;-90
2023/06/16 03:34:40;;;;;;;5.65;4.40;;;14.60;99.90;;;;;;5073907;28;20267;-90
2023/06/16 03:37:06;;;;;;;7.28;4.80;;;14.60;99.90;;;;;;5074281;28;20268;-90
2023/06/16 03:39:32;;;;;;;7.78;4.85;;;14.60;99.90;;;;;;5075090;28;20173;-90
2023/06/16 03:41:59;;;;;;;8.45;4.75;;;14.60;99.90;;;;;;5073744;28;20185;-90
2023/06/16 03:44:24;;;;;;;7.63;4.75;;;14.60;99.90;;;;;;5073851;28;20630;-91
2023/06/16 03:46:50;;;;;;;5.90;4.95;;;14.60;99.90;;;;;;5073553;28;20212;-89
2023/06/16 03:49:16;;;;;;;5.88;4.40;;;14.60;99.90;;;;;;5073728;28;20179;-90
2023/06/16 03:52:12;;;;;;;7.75;5.13;;;14.50;99.90;;;;;;5073827;28;20215;-91
2023/06/16 03:54:37;;;;;;;8.35;5.20;;;14.50;99.90;;;;;;5073966;28;20196;-91
2023/06/16 03:57:03;;;;;;;6.00;4.53;;;14.50;99.90;;;;;;5074110;28;20212;-90
2023/06/16 03:59:29;;;;;;;8.05;4.75;;;14.60;99.90;;;;;;5073560;28;20207;-90
2023/06/16 04:02:16;;;;;;;5.28;4.30;;;14.60;99.90;;;;;;5073342;28;20205;-91
2023/06/16 04:04:45;;;;;;;6.03;5.03;;;14.50;99.90;;;;;;5073854;28;20177;-88
2023/06/16 04:07:11;;;;;;;8.50;4.80;;;14.50;99.90;;;;;;5073571;28;20177;-91
2023/06/16 04:09:38;;;;;;;5.70;4.40;;;14.50;99.90;;;;;;5073573;28;20551;-91
2023/06/16 04:12:16;;;;;;;5.75;4.80;;;14.50;99.90;;;;;;5074078;28;20178;-90
2023/06/16 04:14:41;;;;;;;6.43;4.85;;;14.50;99.90;;;;;;5077346;28;20185;-91
2023/06/16 04:17:07;;;;;;;7.55;4.70;;;14.50;99.90;;;;;;5077058;28;20239;-89
2023/06/16 04:19:33;;;;;;;7.05;5.22;;;14.40;99.90;;;;;;5076835;28;20180;-90
2023/06/16 04:22:13;;;;;;;8.23;4.70;;;14.40;99.90;;;;;;5077163;28;20230;-91
2023/06/16 04:24:38;;;;;;;7.13;4.60;;;14.50;99.90;;;;;;5077063;28;20177;-91
2023/06/16 04:27:05;;;;;;;6.63;4.85;;;14.50;99.90;;;;;;5076781;28;20256;-90
2023/06/16 04:29:32;;;;;;;6.80;5.07;;;14.50;99.90;;;;;;5077338;28;20242;-92
2023/06/16 04:32:00;;;;;;;7.03;4.90;;;14.50;99.90;;;;;;5076875;28;20208;-91
2023/06/16 04:34:31;;;;;;;5.88;4.70;;;14.50;99.90;;;;;;5078185;28;20187;-92
2023/06/16 04:36:57;;;;;;;9.02;4.63;;;14.50;99.90;;;;;;5076859;28;20232;-90
2023/06/16 04:39:23;;;;;;;9.45;5.10;;;14.50;99.90;;;;;;5076757;28;20180;-90
2023/06/16 04:42:01;;;;;;;5.45;4.90;;;14.50;99.90;;;;;;5076974;28;20181;-91
2023/06/16 04:44:26;;;;;;;6.20;4.53;;;14.50;99.90;;;;;;5077677;28;20501;-89
2023/06/16 04:46:52;;;;;;;6.47;5.40;;;14.50;99.90;;;;;;5077004;28;20173;-87
2023/06/16 04:49:19;;;;;;;7.72;4.70;;;14.50;99.90;;;;;;5075581;28;20563;-86
2023/06/16 04:51:44;;;;;;;7.13;5.00;;;14.50;99.90;;;;;;5076826;28;20227;-88
2023/06/16 04:54:10;;;;;;;8.05;4.80;;;14.50;99.90;;;;;;5075815;28;20173;-88
2023/06/16 04:56:36;;;;;;;8.45;5.00;;;14.50;99.90;;;;;;5076304;28;20223;-87
2023/06/16 04:59:02;;;;;;;10.57;5.05;;;14.40;99.90;;;;;;5076395;28;20173;-87
2023/06/16 05:01:27;;;;;;;9.95;5.25;;;14.40;99.90;;;;;;5076122;28;20176;-87
2023/06/16 05:03:55;;;;;;;9.43;4.97;;;14.40;99.90;;;;;;5076034;28;20181;-87
2023/06/16 05:06:20;;;;;;;6.63;5.10;;;14.30;99.90;;;;;;5075886;28;20177;-87
2023/06/16 05:08:46;;;;;;;6.63;5.13;;;14.30;99.90;;;;;;5075757;28;20232;-86
2023/06/16 05:11:12;;;;;;;7.63;5.28;;;14.40;99.90;;;;;;5075670;28;20698;-86
2023/06/16 05:13:37;;;;;;;6.35;5.53;;;14.40;99.90;;;;;;5075686;28;20272;-86
2023/06/16 05:16:03;;;;;;;10.73;5.43;;;14.40;99.90;;;;;;5076549;28;20215;-86
2023/06/16 05:18:29;;;;;;;7.68;5.38;;;14.30;99.90;;;;;;5075526;28;20185;-86
2023/06/16 05:20:55;;;;;;;10.50;6.22;;;14.30;99.90;;;;;;5074534;28;20205;-87
2023/06/16 05:23:21;;;;;;;8.43;5.18;;;14.40;99.90;;;;;;5076321;28;20165;-87
2023/06/16 05:25:46;;;;;;;5.93;5.32;;;14.40;99.90;;;;;;5075628;28;20181;-87
2023/06/16 05:28:12;;;;;;;7.65;5.22;;;14.40;99.90;;;;;;5075762;28;20603;-87
2023/06/16 05:30:38;;;;;;;10.23;5.65;;;14.50;99.90;;;;;;5077057;28;20173;-88
2023/06/16 05:33:05;;;;;;;10.18;6.20;;;14.60;99.90;;;;;;5075573;28;20293;-86
2023/06/16 05:35:30;;;;;;;10.27;6.20;;;14.60;99.90;;;;;;5076877;28;20288;-87
2023/06/16 05:37:56;;;;;;;7.57;6.55;;;14.60;99.90;;;;;;5075644;28;20205;-87
2023/06/16 05:40:22;;;;;;;7.78;6.60;;;14.60;99.90;;;;;;5075639;28;20280;-87
2023/06/16 05:42:48;;;;;;;8.50;6.38;;;14.60;99.90;;;;;;5075130;28;20223;-85
2023/06/16 05:45:14;;;;;;;10.93;6.90;;;14.60;99.90;;;;;;5074890;28;20209;-85
2023/06/16 05:47:40;;;;;;;7.40;6.57;;;14.50;99.90;;;;;;5073949;28;20212;-83
2023/06/16 05:50:06;;;;;;;8.80;6.45;;;14.50;99.90;;;;;;5075162;28;20493;-84
2023/06/16 05:52:32;;;;;;;9.27;6.07;;;14.50;99.90;;;;;;5074257;28;20181;-83
2023/06/16 05:54:57;;;;;;;8.10;6.35;;;14.50;99.90;;;;;;5074105;28;20208;-87
2023/06/16 05:57:24;;;;;;;6.68;5.97;;;14.60;99.90;;;;;;5074487;28;20216;-83
2023/06/16 05:59:50;;;;;;;6.70;5.88;;;14.60;99.90;;;;;;5074229;28;20177;-85
2023/06/16 06:02:17;;;;;;;7.35;5.82;;;14.60;99.90;;;;;;5074205;28;20185;-84
2023/06/16 06:04:42;;;;;;;8.32;5.90;;;14.70;99.90;;;;;;5075484;28;20238;-86
2023/06/16 06:07:08;;;;;;;8.32;5.78;;;14.80;99.90;;;;;;5074835;28;20219;-87
2023/06/16 06:09:34;;;;;;;11.20;6.28;;;14.90;99.90;;;;;;5074278;28;20181;-87
2023/06/16 06:12:00;;;;;;;8.95;6.60;;;14.90;99.90;;;;;;5075546;28;20177;-86
2023/06/16 06:14:26;;;;;;;7.97;6.45;;;15.00;99.90;;;;;;5075183;28;20615;-85
2023/06/16 06:16:52;;;;;;;10.15;6.55;;;15.10;99.90;;;;;;5073661;28;20709;-85
2023/06/16 06:19:17;;;;;;;7.50;5.43;;;15.20;99.90;;;;;;5073598;28;20177;-84
2023/06/16 06:21:43;;;;;;;8.30;6.10;;;15.20;99.90;;;;;;5073543;28;20690;-85
2023/06/16 06:24:09;;;;;;;7.95;6.35;;;15.30;99.90;;;;;;5074151;28;20183;-86
2023/06/16 06:26:38;;;;;;;8.30;5.60;;;15.40;99.90;;;;;;5074176;28;20179;-84
2023/06/16 06:29:04;;;;;;;6.55;5.80;;;15.50;99.90;;;;;;5074055;28;20196;-86
2023/06/16 06:31:30;;;;;;;6.95;5.45;;;15.60;99.90;;;;;;5073731;28;20736;-86
2023/06/16 06:33:57;;;;;;;9.05;5.88;;;15.60;99.90;;;;;;5073480;28;20617;-86
2023/06/16 06:36:26;;;;;;;7.43;5.75;;;15.60;99.90;;;;;;5071598;28;20208;-86
2023/06/16 06:38:52;;;;;;;7.57;5.93;;;15.60;99.90;;;;;;5073925;28;20181;-86
2023/06/16 06:41:19;;;;;;;6.90;5.35;;;15.70;99.90;;;;;;5073490;28;20279;-86
2023/06/16 06:43:45;;;;;;;7.80;5.85;;;15.80;99.90;;;;;;5074687;28;20252;-84
2023/06/16 06:46:11;;;;;;;7.47;5.68;;;15.90;99.90;;;;;;5074172;28;20164;-85
2023/06/16 06:48:37;;;;;;;10.05;5.47;;;15.90;99.90;;;;;;5072980;28;20174;-85
2023/06/16 06:51:03;;;;;;;6.68;5.10;;;15.80;99.90;;;;;;5074705;28;20170;-85
2023/06/16 06:53:29;;;;;;;6.10;5.38;;;15.80;99.90;;;;;;5073250;28;20180;-85
2023/06/16 06:55:55;;;;;;;6.20;5.38;;;15.70;99.90;;;;;;5074842;28;20255;-85
2023/06/16 06:58:20;;;;;;;8.20;5.45;;;15.70;99.90;;;;;;5073501;28;20177;-87
2023/06/16 07:00:46;;;;;;;6.50;5.10;;;15.60;99.90;;;;;;5073996;28;20575;-86
2023/06/16 07:03:12;;;;;;;7.65;5.10;;;15.60;99.90;;;;;;5072605;28;20188;-86
2023/06/16 07:05:38;;;;;;;6.93;5.13;;;15.70;99.90;;;;;;5073612;28;20177;-86
2023/06/16 07:08:04;;;;;;;7.45;5.20;;;15.70;99.90;;;;;;5073688;28;20549;-87
2023/06/16 07:10:32;;;;;;;6.63;5.18;;;15.70;99.90;;;;;;5074949;28;20547;-87
2023/06/16 07:12:58;;;;;;;7.15;5.57;;;15.70;99.90;;;;;;5073530;28;20177;-86
2023/06/16 07:15:24;;;;;;;7.55;5.45;;;15.70;99.90;;;;;;5073004;28;20236;-86
2023/06/16 07:17:50;;;;;;;7.40;5.25;;;15.70;99.90;;;;;;5074123;28;20959;-85
2023/06/16 07:20:16;;;;;;;9.68;5.18;;;15.80;99.90;;;;;;5073076;28;20231;-85
2023/06/16 07:22:45;;;;;;;6.18;5.20;;;15.90;99.90;;;;;;5072994;28;20208;-85
2023/06/16 07:25:11;;;;;;;8.00;5.78;;;16.10;99.90;;;;;;5074317;28;20165;-85
2023/06/16 07:27:37;;;;;;;11.10;5.78;;;16.30;99.90;;;;;;5074136;28;20228;-86
2023/06/16 07:30:07;;;;;;;9.00;5.55;;;16.40;99.90;;;;;;5073402;28;20177;-86
2023/06/16 07:32:33;;;;;;;10.32;5.95;;;16.60;99.90;;;;;;5073182;28;20184;-86
2023/06/16 07:34:59;;;;;;;10.13;6.10;;;16.70;99.90;;;;;;5072804;28;20651;-84
2023/06/16 07:37:24;;;;;;;13.15;7.15;;;16.70;99.90;;;;;;5072645;28;20183;-84
2023/06/16 07:39:51;;;;;;;11.80;6.30;;;16.60;99.90;;;;;;5073075;28;20184;-85
2023/06/16 07:42:16;;;;;;;10.48;7.13;;;16.60;99.90;;;;;;5072867;28;20192;-88
2023/06/16 07:44:44;;;;;;;9.07;6.75;;;16.70;99.90;;;;;;5072775;28;20185;-87
2023/06/16 07:47:10;;;;;;;9.50;6.57;;;16.70;99.90;;;;;;5076422;28;20165;-88
2023/06/16 07:49:36;;;;;;;15.73;7.28;;;16.70;99.90;;;;;;5077466;28;20268;-87
2023/06/16 07:52:02;;;;;;;10.63;7.20;;;16.80;99.90;;;;;;5078644;28;20201;-85
2023/06/16 07:54:28;;;;;;;15.05;7.50;;;16.80;99.90;;;;;;5077334;28;20287;-88
2023/06/16 07:56:54;;;;;;;17.05;7.07;;;16.80;99.90;;;;;;5076928;28;20255;-86
2023/06/16 07:59:19;;;;;;;9.40;6.38;;;16.90;99.90;;;;;;5076652;28;20181;-87
2023/06/16 08:01:45;;;;;;;12.55;6.95;;;16.80;99.90;;;;;;5076703;28;20173;-86
2023/06/16 08:04:12;;;;;;;15.65;6.63;;;16.80;99.90;;;;;;5078270;28;20670;-87
2023/06/16 08:06:40;;;;;;;12.25;6.82;;;16.80;99.90;;;;;;5076921;28;20173;-86
2023/06/16 08:09:07;;;;;;;10.77;7.22;;;16.80;99.90;;;;;;5076540;28;20177;-86
2023/06/16 08:11:36;;;;;;;7.57;6.53;;;16.80;99.90;;;;;;5076446;28;20185;-85
2023/06/16 08:14:03;;;;;;;8.52;7.20;;;16.80;99.90;;;;;;5076263;28;20295;-87
2023/06/16 08:16:29;;;;;;;13.15;7.95;;;16.70;99.90;;;;;;5076978;28;20205;-88
2023/06/16 08:18:56;;;;;;;9.50;7.10;;;16.80;99.90;;;;;;5076694;28;20509;-85
2023/06/16 08:21:22;;;;;;;8.95;6.60;;;16.90;99.90;;;;;;5077371;28;20272;-88
2023/06/16 08:23:48;;;;;;;7.88;6.45;;;16.90;99.90;;;;;;5076460;28;20177;-88
2023/06/16 08:26:14;;;;;;;6.97;6.28;;;17.00;99.90;;;;;;5076390;28;20169;-87
2023/06/16 08:28:40;;;;;;;8.80;6.35;;;17.10;99.90;;;;;;5076443;28;20232;-85
2023/06/16 08:31:06;;;;;;;8.50;6.75;;;17.10;99.90;;;;;;5076569;28;20173;-87
2023/06/16 08:33:32;;;;;;;8.02;5.85;;;17.20;99.90;;;;;;5077067;28;20184;-86
2023/06/16 08:35:58;;;;;;;8.88;6.03;;;17.20;99.90;;;;;;5076154;28;20227;-86
2023/06/16 08:38:24;;;;;;;11.80;6.20;;;17.20;99.90;;;;;;5077252;28;20530;-86
2023/06/16 08:40:50;;;;;;;11.10;5.85;;;17.20;99.90;;;;;;5077026;28;20187;-85
2023/06/16 08:43:17;;;;;;;7.05;6.03;;;17.10;99.90;;;;;;5077088;28;20192;-86
2023/06/16 08:45:48;;;;;;;7.32;5.55;;;17.10;99.90;;;;;;5077259;28;20169;-85
2023/06/16 08:48:15;;;;;;;7.95;5.30;;;17.10;99.90;;;;;;5077319;28;20169;-88
2023/06/16 08:50:40;;;;;;;9.15;5.93;;;17.20;99.90;;;;;;5076465;28;20208;-87
2023/06/16 08:53:09;;;;;;;8.38;5.05;;;17.30;99.90;;;;;;5075862;28;20209;-86
2023/06/16 08:55:40;;;;;;;5.93;5.20;;;17.30;99.90;;;;;;5075641;28;20265;-86
2023/06/16 08:58:09;;;;;;;7.50;5.38;;;17.40;99.90;;;;;;5075124;28;20192;-87
2023/06/16 09:00:36;;;;;;;8.10;5.57;;;17.40;99.90;;;;;;5076916;28;20169;-87
2023/06/16 09:03:05;;;;;;;8.40;5.13;;;17.50;99.90;;;;;;5075041;28;20310;-86
2023/06/16 09:05:36;;;;;;;6.80;4.60;;;17.60;99.90;;;;;;5075357;28;20177;-86
2023/06/16 09:08:05;;;;;;;7.70;5.00;;;17.60;99.90;;;;;;5075230;28;20181;-86
2023/06/16 09:10:31;;;;;;;6.38;5.03;;;17.70;99.90;;;;;;5075351;28;20181;-87
2023/06/16 09:13:00;;;;;;;7.13;5.35;;;17.80;99.90;;;;;;5075693;28;20630;-87
2023/06/16 09:15:26;;;;;;;10.65;6.13;;;18.00;99.90;;;;;;5076693;28;20220;-86
2023/06/16 09:17:52;;;;;;;11.32;6.18;;;18.20;99.90;;;;;;5075153;28;20184;-87
2023/06/16 09:20:22;;;;;;;11.43;7.10;;;18.30;99.90;;;;;;5074248;28;20173;-85
2023/06/16 09:22:49;;;;;;;14.85;7.68;;;18.30;99.90;;;;;;5074822;28;20522;-88
2023/06/16 09:25:18;;;;;;;15.02;9.43;;;18.50;99.90;;;;;;5075090;28;20188;-85
2023/06/16 09:27:49;;;;;;;14.95;8.85;;;18.50;99.90;;;;;;5076243;28;20215;-87
2023/06/16 09:30:20;;;;;;;17.05;9.20;;;18.60;99.90;;;;;;5075246;28;20615;-84
2023/06/16 09:32:50;;;;;;;14.85;8.43;;;18.60;99.90;;;;;;5074496;28;20514;-84
2023/06/16 09:35:17;;;;;;;15.20;7.32;;;18.70;99.90;;;;;;5074698;28;20279;-85
2023/06/16 09:37:44;;;;;;;13.30;8.18;;;18.60;99.90;;;;;;5073870;28;20184;-84
2023/06/16 09:40:11;;;;;;;10.73;8.20;;;18.70;99.90;;;;;;5074589;28;20181;-85
2023/06/16 09:42:41;;;;;;;13.57;8.55;;;18.70;99.90;;;;;;5074590;28;20176;-85
2023/06/16 09:45:12;;;;;;;11.75;7.70;;;18.90;99.90;;;;;;5074536;28;20173;-83
2023/06/16 09:47:43;;;;;;;10.93;7.28;;;19.00;99.90;;;;;;5074252;28;20173;-84
2023/06/16 09:50:16;;;;;;;11.00;7.00;;;19.00;99.90;;;;;;5074600;28;20201;-85
2023/06/16 09:52:44;;;;;;;10.68;6.93;;;19.00;99.90;;;;;;5074490;28;20170;-86
2023/06/16 09:55:14;;;;;;;10.27;6.13;;;18.90;99.90;;;;;;5074555;28;20205;-86
2023/06/16 09:57:45;;;;;;;10.10;5.82;;;19.00;99.90;;;;;;5075519;28;20170;-84
2023/06/16 10:00:18;;;;;;;8.27;5.88;;;19.00;99.90;;;;;;5074123;28;20185;-85
2023/06/16 10:02:45;;;;;;;11.48;5.57;;;19.00;99.90;;;;;;5073667;28;20511;-85
2023/06/16 10:05:18;;;;;;;10.77;6.05;;;18.90;99.90;;;;;;5074119;28;20177;-87
2023/06/16 10:07:52;;;;;;;9.30;5.72;;;19.00;99.90;;;;;;5074043;28;20238;-86
2023/06/16 10:10:25;;;;;;;12.57;6.50;;;18.90;99.90;;;;;;5075061;28;20615;-86
2023/06/16 10:12:54;;;;;;;11.35;6.05;;;18.90;99.90;;;;;;5075008;28;20244;-86
2023/06/16 10:15:27;;;;;;;8.73;5.32;;;19.10;99.90;;;;;;5074902;28;20209;-86
2023/06/16 10:18:04;;;;;;;9.23;6.03;;;19.10;99.90;;;;;;5074808;28;20203;-85
2023/06/16 10:20:32;;;;;;;10.65;5.65;;;19.20;99.90;;;;;;5075161;28;20164;-86
2023/06/16 10:23:03;;;;;;;9.85;5.75;;;19.20;99.90;;;;;;5073354;28;20216;-86
2023/06/16 10:25:30;;;;;;;7.80;5.53;;;19.30;99.90;;;;;;5074066;28;20524;-86
2023/06/16 10:28:00;;;;;;;9.10;5.70;;;19.30;99.90;;;;;;5073900;28;20258;-86
2023/06/16 10:30:28;;;;;;;8.55;5.32;;;19.40;99.90;;;;;;5074028;28;20184;-86
2023/06/16 10:32:58;;;;;;;14.70;6.00;;;19.60;99.90;;;;;;5075036;28;20168;-87
2023/06/16 10:35:23;;;;;;;7.43;5.10;;;19.70;99.90;;;;;;5073933;28;20201;-87
2023/06/16 10:37:54;;;;;;;7.70;5.47;;;19.70;99.90;;;;;;5075235;28;20270;-87
2023/06/16 10:40:24;;;;;;;6.35;4.70;;;19.70;99.90;;;;;;5074169;28;20509;-86
2023/06/16 10:42:57;;;;;;;8.50;4.50;;;19.70;99.90;;;;;;5074960;28;20204;-86
2023/06/16 10:45:31;;;;;;;7.68;4.28;;;19.60;99.90;;;;;;5074932;28;21007;-87
2023/06/16 10:48:10;;;;;;;9.95;4.80;;;19.50;99.90;;;;;;5074839;28;20161;-86
2023/06/16 10:50:39;;;;;;;10.00;4.05;;;19.50;99.90;;;;;;5075110;28;20157;-87
2023/06/16 10:53:12;;;;;;;6.88;4.10;;;19.40;99.90;;;;;;5074077;28;20173;-87
2023/06/16 10:55:45;;;;;;;7.80;3.80;;;19.30;99.90;;;;;;5075060;28;20215;-88
2023/06/16 10:58:16;;;;;;;4.65;3.47;;;19.20;99.90;;;;;;5073991;28;20253;-89
2023/06/16 11:00:43;;;;;;;6.55;3.72;;;19.10;99.90;;;;;;5073818;28;20268;-86
2023/06/16 11:03:09;;;;;;;8.27;4.20;;;19.20;99.90;;;;;;5073475;28;20518;-86
2023/06/16 11:05:39;;;;;;;6.38;3.65;;;19.20;99.90;;;;;;5074865;28;20177;-86
2023/06/16 11:08:08;;;;;;;6.65;3.70;;;19.40;99.90;;;;;;5074993;28;20272;-86
2023/06/16 11:10:54;;;;;;;6.53;3.83;;;19.50;99.90;;;;;;5073261;28;20267;-85
2023/06/16 11:13:32;;;;;;;8.25;4.45;;;19.70;99.90;;;;;;5073450;28;20173;-88
2023/06/16 11:16:01;;;;;;;6.07;4.38;;;19.70;99.90;;;;;;5073639;28;20541;-87
2023/06/16 11:18:28;;;;;;;5.82;4.28;;;19.70;99.90;;;;;;5073671;28;20211;-88
2023/06/16 11:20:58;;;;;;;7.70;4.30;;;19.80;99.90;;;;;;5073045;28;20268;-88
2023/06/16 11:23:25;;;;;;;6.03;4.57;;;19.80;99.90;;;;;;5073266;28;20173;-86
2023/06/16 11:26:18;;;;;;;7.30;4.20;;;19.70;99.90;;;;;;5073386;28;20177;-88
2023/06/16 11:28:44;;;;;;;7.45;4.38;;;19.70;99.90;;;;;;5073277;28;20220;-88
2023/06/16 11:31:12;;;;;;;5.95;4.30;;;19.70;99.90;;;;;;5073301;28;20177;-86
2023/06/16 11:33:39;;;;;;;7.93;5.15;;;19.60;99.90;;;;;;5072799;28;20181;-86
2023/06/16 11:36:22;;;;;;;7.35;4.75;;;19.50;99.90;;;;;;5073136;28;20643;-87
2023/06/16 11:38:51;;;;;;;7.68;4.68;;;19.50;99.90;;;;;;5073259;28;20197;-87
2023/06/16 11:41:18;;;;;;;6.50;4.68;;;19.40;99.90;;;;;;5074326;28;20169;-88
2023/06/16 11:43:44;;;;;;;7.20;4.40;;;19.40;99.90;;;;;;5073371;28;20169;-88
2023/06/16 11:46:14;;;;;;;6.88;4.68;;;19.40;99.90;;;;;;5073050;28;20185;-87
2023/06/16 11:48:41;;;;;;;8.75;5.45;;;19.40;99.90;;;;;;5072715;28;20177;-88
2023/06/16 11:51:07;;;;;;;7.38;4.68;;;19.30;99.90;;;;;;5072896;28;20516;-88
2023/06/16 11:53:33;;;;;;;8.38;5.15;;;19.20;99.90;;;;;;5073025;28;20187;-88
2023/06/16 11:56:08;;;;;;;9.35;5.03;;;19.20;99.90;;;;;;5073432;28;20209;-88
2023/06/16 11:58:34;;;;;;;9.10;5.50;;;19.10;99.90;;;;;;5073572;28;20222;-88
2023/06/16 12:01:02;;;;;;;7.00;4.75;;;19.10;99.90;;;;;;5073345;28;20208;-87
2023/06/16 12:03:29;;;;;;;5.68;5.13;;;19.10;99.90;;;;;;5072984;28;20184;-88
2023/06/16 12:05:57;;;;;;;9.50;5.82;;;19.20;99.90;;;;;;5074283;28;20513;-87
2023/06/16 12:08:51;;;;;;;10.15;5.97;;;19.10;99.90;;;;;;5073175;28;20185;-87
2023/06/16 12:11:28;;;;;;;7.45;5.65;;;19.10;99.90;;;;;;5073080;28;20181;-87
2023/06/16 12:13:55;;;;;;;14.23;5.38;;;19.10;99.90;;;;;;5073071;28;20177;-88
2023/06/16 12:16:26;;;;;;;7.63;5.43;;;19.20;99.90;;;;;;5073174;28;20296;-88
2023/06/16 12:18:52;;;;;;;8.82;5.68;;;19.20;99.90;;;;;;5074038;28;20165;-87
2023/06/16 12:21:19;;;;;;;10.35;5.75;;;19.30;99.90;;;;;;5072767;28;20177;-88
2023/06/16 12:24:03;;;;;;;7.95;5.55;;;19.40;99.90;;;;;;5073208;28;20193;-87
2023/06/16 12:26:43;;;;;;;7.35;5.90;;;19.40;99.90;;;;;;5073020;28;20628;-88
2023/06/16 12:29:14;;;;;;;7.43;5.68;;;19.50;99.90;;;;;;5073176;28;20612;-88
2023/06/16 12:31:57;;;;;;;9.13;6.90;;;19.50;99.90;;;;;;5073451;28;20184;-89
2023/06/16 12:34:26;;;;;;;7.65;6.03;;;19.50;99.90;;;;;;5075535;28;20183;-89
2023/06/16 12:37:07;;;;;;;7.57;5.80;;;19.50;99.90;;;;;;5076924;28;20220;-91
2023/06/16 12:39:37;;;;;;;11.30;6.28;;;19.50;99.90;;;;;;5076992;28;20165;-91
2023/06/16 12:42:09;;;;;;;9.43;5.63;;;19.40;99.90;;;;;;5076899;28;20174;-89
2023/06/16 12:44:44;;;;;;;8.90;5.82;;;19.40;99.90;;;;;;5076795;28;20184;-89
2023/06/16 12:47:13;;;;;;;7.43;6.25;;;19.40;99.90;;;;;;5076586;28;20181;-89
2023/06/16 12:49:39;;;;;;;9.95;6.43;;;19.50;99.90;;;;;;5076788;28;20169;-89
2023/06/16 12:52:06;;;;;;;12.65;6.80;;;19.60;99.90;;;;;;5076028;28;20184;-87